Time;durP1;ratioP1;P1;durP2;ratioP2;P2;SDS_P1;SDS_P2;PMS_P1;PMS_P2;Temp;Humidity;BMP_temperature;BMP_pressure;BME280_temperature;BME280_humidity;BME280_pressure;Samples;Min_cycle;Max_cycle;Signal;HPM_P1;HPM_P2
2023/10/16 00:01:13;;;;;;;30.90;19.35;;;;;;;14.82;70.15;95779.50;5136209;27;20043;-62
2023/10/16 00:03:42;;;;;;;35.30;19.00;;;;;;;14.85;69.97;95772.25;5136224;27;20507;-62
2023/10/16 00:06:12;;;;;;;32.00;18.85;;;;;;;14.82;69.78;95775.06;5136205;27;20051;-61
2023/10/16 00:08:47;;;;;;;30.10;20.15;;;;;;;14.81;69.82;95776.00;5135326;27;20103;-61
2023/10/16 00:11:16;;;;;;;27.05;18.80;;;;;;;14.82;69.62;95777.72;5136046;27;20516;-61
2023/10/16 00:13:44;;;;;;;31.85;20.17;;;;;;;14.84;69.53;95772.34;5135992;27;20059;-63
2023/10/16 00:16:15;;;;;;;26.73;18.83;;;;;;;14.83;69.25;95776.75;5136036;27;20047;-62
2023/10/16 00:18:42;;;;;;;25.38;17.25;;;;;;;14.86;69.37;95784.44;5135955;27;20103;-62
2023/10/16 00:21:09;;;;;;;26.25;18.08;;;;;;;14.84;69.23;95786.34;5135890;27;20047;-63
2023/10/16 00:23:39;;;;;;;25.73;16.88;;;;;;;14.89;68.78;95792.16;5135686;27;20057;-63
2023/10/16 00:26:09;;;;;;;24.60;16.17;;;;;;;14.89;68.95;95786.03;5135859;27;20074;-62
2023/10/16 00:28:36;;;;;;;;;;;;;;;14.86;69.36;95786.22;5136006;27;20210;-62
2023/10/16 00:31:04;;;;;;;19.15;15.13;;;;;;;14.74;69.63;95798.41;5135642;27;19919;-62
2023/10/16 00:33:33;;;;;;;24.55;16.83;;;;;;;14.69;69.75;95790.81;5135670;27;20056;-62
2023/10/16 00:36:02;;;;;;;29.63;16.60;;;;;;;14.70;69.75;95799.56;5135462;27;20047;-62
2023/10/16 00:38:36;;;;;;;23.33;16.05;;;;;;;14.70;69.17;95808.31;5135562;27;20047;-62
2023/10/16 00:41:15;;;;;;;31.48;15.77;;;;;;;14.71;69.12;95814.38;5135640;27;20060;-62
2023/10/16 00:43:45;;;;;;;25.58;16.50;;;;;;;14.77;69.02;95816.63;5135367;27;20039;-62
2023/10/16 00:46:19;;;;;;;22.80;15.80;;;;;;;14.86;68.74;95823.94;5135454;27;20416;-62
2023/10/16 00:48:48;;;;;;;16.55;13.80;;;;;;;14.95;67.61;95824.25;5135559;27;20131;-61
2023/10/16 00:51:16;;;;;;;19.50;14.05;;;;;;;14.89;67.73;95831.63;5135292;27;20047;-62
2023/10/16 00:53:45;;;;;;;23.05;14.45;;;;;;;14.87;67.43;95830.06;5135472;27;20484;-61
2023/10/16 00:56:14;;;;;;;24.67;15.07;;;;;;;14.89;67.42;95836.91;5135206;27;20047;-61
2023/10/16 00:58:42;;;;;;;27.10;14.38;;;;;;;14.96;67.17;95833.88;5135340;27;20084;-63
2023/10/16 01:01:12;;;;;;;24.95;13.73;;;;;;;15.01;66.85;95834.38;5135073;27;20065;-61
2023/10/16 01:03:41;;;;;;;17.00;12.80;;;;;;;15.02;66.45;95821.13;5135017;27;20449;-61
2023/10/16 01:06:16;;;;;;;15.27;11.77;;;;;;;14.98;65.47;95821.41;5135167;27;20061;-61
2023/10/16 01:08:46;;;;;;;27.80;11.75;;;;;;;14.94;65.75;95818.16;5134843;27;20054;-61
2023/10/16 01:11:14;;;;;;;23.95;13.13;;;;;;;14.95;66.07;95826.88;5135006;27;20043;-63
2023/10/16 01:13:42;;;;;;;20.95;12.07;;;;;;;14.94;65.69;95836.59;5134755;27;20511;-61
2023/10/16 01:16:11;;;;;;;22.65;12.45;;;;;;;14.89;66.14;95844.81;5134798;27;20127;-62
2023/10/16 01:18:38;;;;;;;21.80;11.52;;;;;;;14.86;65.69;95847.63;5134559;27;20051;-62
2023/10/16 01:21:07;;;;;;;20.15;12.23;;;;;;;14.88;65.59;95856.28;5134701;27;20043;-61
2023/10/16 01:23:36;;;;;;;17.45;12.05;;;;;;;14.89;65.49;95865.88;5134638;27;20122;-62
2023/10/16 01:26:04;;;;;;;18.17;11.40;;;;;;;14.86;65.37;95867.84;5134739;27;20055;-61
2023/10/16 01:28:32;;;;;;;20.50;11.23;;;;;;;14.95;65.31;95861.97;5134525;27;20131;-63
2023/10/16 01:31:00;;;;;;;17.33;10.40;;;;;;;14.93;64.76;95869.13;5134522;27;20043;-63
2023/10/16 01:33:30;;;;;;;15.93;10.30;;;;;;;14.91;64.68;95868.41;5134423;27;20432;-61
2023/10/16 01:35:57;;;;;;;12.95;9.98;;;;;;;14.93;64.11;95870.94;5134403;27;20055;-62
2023/10/16 01:38:26;;;;;;;17.17;9.75;;;;;;;14.97;64.04;95869.78;5134360;27;20393;-61
2023/10/16 01:41:07;;;;;;;10.93;9.57;;;;;;;14.92;63.40;95870.06;5134412;27;20059;-63
2023/10/16 01:43:35;;;;;;;14.00;8.90;;;;;;;14.93;63.07;95884.09;5134551;27;20508;-62
2023/10/16 01:46:07;;;;;;;17.60;9.10;;;;;;;14.90;63.12;95893.06;5134572;27;20115;-63
2023/10/16 01:48:37;;;;;;;13.10;8.15;;;;;;;14.89;62.57;95886.94;5134279;27;20548;-61
2023/10/16 01:51:05;;;;;;;10.18;7.97;;;;;;;14.91;62.45;95884.19;5134558;27;20043;-61
2023/10/16 01:53:36;;;;;;;10.82;7.93;;;;;;;14.90;62.53;95890.41;5134710;27;20047;-61
2023/10/16 01:56:12;;;;;;;;;;;;;;;14.92;62.40;95896.41;5134609;27;20054;-62
2023/10/16 01:58:41;;;;;;;11.30;7.00;;;;;;;14.86;62.38;95896.81;5134189;27;20030;-60
2023/10/16 02:01:09;;;;;;;17.52;6.57;;;;;;;14.80;62.04;95905.94;5134110;27;20046;-62
2023/10/16 02:03:36;;;;;;;13.90;5.88;;;;;;;14.75;61.43;95911.47;5134363;27;20047;-62
2023/10/16 02:06:04;;;;;;;6.90;4.72;;;;;;;14.73;60.32;95902.00;5134466;27;20050;-62
2023/10/16 02:08:31;;;;;;;8.00;4.10;;;;;;;14.70;59.63;95915.38;5134058;27;20496;-60
2023/10/16 02:10:58;;;;;;;9.30;3.85;;;;;;;14.63;59.41;95899.13;5134095;27;20055;-63
2023/10/16 02:13:27;;;;;;;9.57;4.38;;;;;;;14.54;59.69;95905.81;5134121;27;20050;-62
2023/10/16 02:15:54;;;;;;;8.73;4.47;;;;;;;14.59;58.94;95916.91;5133970;27;20408;-62
2023/10/16 02:18:24;;;;;;;8.63;4.22;;;;;;;14.52;58.86;95905.09;5133821;27;20047;-62
2023/10/16 02:20:51;;;;;;;7.65;3.70;;;;;;;14.47;58.75;95897.47;5134028;27;20082;-62
2023/10/16 02:23:19;;;;;;;6.47;3.90;;;;;;;14.45;58.06;95909.88;5133814;27;20488;-62
2023/10/16 02:25:45;;;;;;;7.07;3.60;;;;;;;14.42;58.20;95902.19;5133832;28;20047;-62
2023/10/16 02:28:13;;;;;;;6.25;4.22;;;;;;;14.37;57.79;95918.28;5133756;27;20499;-63
2023/10/16 02:30:42;;;;;;;6.20;4.32;;;;;;;14.34;57.91;95928.13;5134510;27;20047;-62
2023/10/16 02:33:18;;;;;;;6.72;4.13;;;;;;;14.30;57.48;95932.75;5137897;27;20108;-62
2023/10/16 02:35:49;;;;;;;8.57;3.90;;;;;;;14.27;57.74;95932.97;5137878;27;20048;-62
2023/10/16 02:38:23;;;;;;;7.80;3.85;;;;;;;14.21;57.50;95949.94;5138264;27;20093;-62
2023/10/16 02:40:53;;;;;;;7.63;3.58;;;;;;;14.13;57.68;95960.97;5137946;27;20043;-61
2023/10/16 02:43:21;;;;;;;8.05;3.67;;;;;;;14.01;57.68;95952.03;5137751;27;20488;-62
2023/10/16 02:45:53;;;;;;;8.40;4.38;;;;;;;13.99;57.67;95934.66;5137659;27;20047;-61
2023/10/16 02:48:21;;;;;;;7.15;3.75;;;;;;;13.90;57.80;95952.69;5137689;27;20043;-62
2023/10/16 02:50:56;;;;;;;7.53;3.38;;;;;;;13.82;57.85;95951.47;5137651;27;20039;-63
2023/10/16 02:53:26;;;;;;;6.18;3.38;;;;;;;13.80;57.98;95959.44;5137631;27;20130;-62
2023/10/16 02:55:57;;;;;;;8.47;3.57;;;;;;;13.73;57.99;95966.00;5137575;27;20077;-63
2023/10/16 02:58:26;;;;;;;6.90;3.88;;;;;;;13.63;57.61;95961.28;5137544;27;20108;-61
2023/10/16 03:00:57;;;;;;;6.80;3.53;;;;;;;13.64;57.90;95983.19;5137509;27;20051;-62
2023/10/16 03:03:26;;;;;;;3.38;2.97;;;;;;;13.57;57.77;95981.84;5137608;27;20051;-62
2023/10/16 03:05:55;;;;;;;3.47;2.03;;;;;;;13.58;57.36;95983.53;5137601;27;20092;-62
2023/10/16 03:08:29;;;;;;;3.13;2.65;;;;;;;13.49;57.15;95983.13;5137243;27;20079;-62
2023/10/16 03:10:57;;;;;;;5.05;2.55;;;;;;;13.46;57.24;95988.53;5137276;27;20130;-62
2023/10/16 03:13:25;;;;;;;3.28;2.30;;;;;;;13.37;56.76;96000.41;5137107;27;20051;-61
2023/10/16 03:15:59;;;;;;;4.85;2.05;;;;;;;13.31;56.39;95984.19;5137118;27;20051;-61
2023/10/16 03:18:29;;;;;;;6.55;2.40;;;;;;;13.27;56.31;95997.47;5137202;27;20044;-63
2023/10/16 03:21:14;;;;;;;3.28;2.20;;;;;;;13.23;56.37;96003.84;5137070;27;20051;-63
2023/10/16 03:23:43;;;;;;;16.13;2.90;;;;;;;13.17;56.19;96019.97;5136964;27;20546;-62
2023/10/16 03:26:19;;;;;;;5.37;2.17;;;;;;;13.12;56.30;96016.72;5137004;27;20395;-62
2023/10/16 03:28:46;;;;;;;4.95;2.42;;;;;;;12.98;56.54;96013.09;5136887;27;20047;-61
2023/10/16 03:31:13;;;;;;;4.35;2.58;;;;;;;12.91;56.10;96024.88;5137263;27;20191;-62
2023/10/16 03:33:43;;;;;;;12.90;2.45;;;;;;;12.84;55.85;96021.78;5137099;27;20069;-61
2023/10/16 03:36:11;;;;;;;10.82;2.45;;;;;;;12.86;55.66;96006.75;5136656;27;20130;-62
2023/10/16 03:38:41;;;;;;;6.40;1.83;;;;;;;12.82;55.22;96021.00;5136705;27;20069;-64
2023/10/16 03:41:19;;;;;;;8.18;2.10;;;;;;;12.71;55.62;96024.22;5136642;27;20422;-62
2023/10/16 03:43:47;;;;;;;7.68;2.03;;;;;;;12.64;55.25;96031.56;5135244;27;20049;-61
2023/10/16 03:46:14;;;;;;;8.38;2.22;;;;;;;12.61;55.34;96042.25;5136660;27;20130;-64
2023/10/16 03:48:44;;;;;;;5.35;1.98;;;;;;;12.53;55.17;96040.97;5136613;27;20051;-62
2023/10/16 03:51:16;;;;;;;4.25;1.95;;;;;;;12.44;55.35;96040.53;5136557;27;20039;-63
2023/10/16 03:53:44;;;;;;;10.52;2.63;;;;;;;12.44;55.21;96056.28;5136471;27;20039;-63
2023/10/16 03:56:13;;;;;;;7.75;2.28;;;;;;;12.37;55.23;96047.00;5136207;27;20172;-63
2023/10/16 03:58:42;;;;;;;6.22;1.80;;;;;;;12.38;55.25;96043.47;5136386;27;20043;-63
2023/10/16 04:01:09;;;;;;;4.45;1.58;;;;;;;12.37;54.86;96047.00;5136288;27;20040;-64
2023/10/16 04:03:47;;;;;;;11.75;1.90;;;;;;;12.40;54.87;96048.66;5136303;27;20044;-63
2023/10/16 04:06:19;;;;;;;10.05;1.90;;;;;;;12.35;54.78;96054.13;5136284;27;20436;-63
2023/10/16 04:08:47;;;;;;;5.63;2.72;;;;;;;12.35;54.78;96054.13;5136406;27;20499;-64
2023/10/16 04:11:15;;;;;;;5.57;1.75;;;;;;;12.38;54.96;96060.03;5136151;27;20099;-63
2023/10/16 04:13:47;;;;;;;1.73;1.50;;;;;;;12.37;54.71;96068.84;5136074;27;20098;-61
2023/10/16 04:16:30;;;;;;;2.63;1.38;;;;;;;12.33;54.96;96082.19;5136047;27;20126;-63
2023/10/16 04:19:09;;;;;;;2.05;1.80;;;;;;;12.32;54.95;96083.13;5136239;27;20135;-63
2023/10/16 04:21:43;;;;;;;2.60;1.70;;;;;;;12.33;54.62;96088.31;5135927;27;20043;-62
2023/10/16 04:24:30;;;;;;;1.45;1.33;;;;;;;12.32;54.17;96084.00;5136091;27;20753;-62
2023/10/16 04:29:49;;;;;;;4.80;1.50;;;;;;;12.38;52.72;96090.69;5135520;27;20043;-63
2023/10/16 04:32:20;;;;;;;1.83;1.38;;;;;;;12.39;52.09;96095.00;5135736;27;20103;-64
2023/10/16 04:34:53;;;;;;;6.72;1.30;;;;;;;12.42;51.45;96080.88;5135667;27;20047;-62
2023/10/16 04:37:29;;;;;;;2.28;1.45;;;;;;;12.43;51.17;96079.97;5135599;27;20047;-61
2023/10/16 04:43:07;;;;;;;2.33;1.50;;;;;;;12.36;49.83;96093.41;5135517;27;20069;-62
2023/10/16 04:45:59;;;;;;;4.63;1.20;;;;;;;12.33;49.25;96097.94;5135690;27;20047;-63
2023/10/16 04:51:16;;;;;;;3.00;1.00;;;;;;;12.23;48.07;96111.56;5124564;27;20508;-61
2023/10/16 04:53:58;;;;;;;3.42;1.27;;;;;;;12.21;48.32;96116.00;5134774;27;20086;-61
2023/10/16 04:59:36;;;;;;;3.30;1.13;;;;;;;12.25;47.09;96125.41;5135139;27;20054;-62
2023/10/16 05:02:16;;;;;;;13.48;1.75;;;;;;;12.13;46.58;96134.75;5134890;27;20050;-63
2023/10/16 05:04:59;;;;;;;3.20;1.65;;;;;;;12.11;46.38;96157.59;5134985;27;20133;-62
2023/10/16 05:07:37;;;;;;;2.05;1.35;;;;;;;11.97;46.36;96157.38;5134883;27;20047;-61
2023/10/16 05:10:17;;;;;;;7.72;1.45;;;;;;;11.95;45.46;96154.00;5134832;27;20047;-61
2023/10/16 05:15:51;;;;;;;7.07;1.50;;;;;;;11.96;45.10;96138.22;5134840;27;20376;-62
2023/10/16 05:18:42;;;;;;;3.45;1.10;;;;;;;11.97;44.61;96144.28;5134861;27;20050;-62
2023/10/16 05:21:40;;;;;;;2.45;1.30;;;;;;;11.92;44.86;96144.50;5134563;27;20047;-62
2023/10/16 06:16:29;;;;;;;6.25;1.38;;;;;;;12.04;39.71;96305.56;5134306;28;20469;-63
2023/10/16 06:18:59;;;;;;;7.13;1.67;;;;;;;12.01;39.77;96319.69;5133965;27;20043;-62
2023/10/16 06:21:26;;;;;;;2.97;1.45;;;;;;;12.11;39.30;96324.53;5133899;27;20118;-62
2023/10/16 06:23:54;;;;;;;7.70;1.25;;;;;;;12.14;39.29;96329.63;5134074;28;20126;-62
2023/10/16 06:26:27;;;;;;;3.85;1.20;;;;;;;12.23;39.84;96339.69;5133874;27;20047;-62
2023/10/16 06:28:54;;;;;;;9.90;1.58;;;;;;;12.29;38.98;96351.66;5133714;27;20061;-62
2023/10/16 06:31:24;;;;;;;9.38;1.67;;;;;;;12.33;39.39;96350.56;5133904;27;20043;-63
2023/10/16 06:33:56;;;;;;;3.53;1.30;;;;;;;12.34;38.92;96368.00;5133920;27;20061;-63
2023/10/16 06:36:25;;;;;;;17.45;1.88;;;;;;;12.33;39.03;96365.44;5133715;28;20396;-62
2023/10/16 06:38:52;;;;;;;5.18;1.52;;;;;;;12.34;38.42;96386.34;5133803;27;20404;-63
2023/10/16 06:41:20;;;;;;;9.52;1.42;;;;;;;12.42;38.90;96377.28;5133817;28;20126;-62
2023/10/16 06:43:51;;;;;;;2.20;1.42;;;;;;;12.51;38.38;96388.19;5133667;28;20130;-63
2023/10/16 06:46:29;;;;;;;4.40;1.83;;;;;;;12.55;38.72;96395.91;5133755;27;20047;-62
2023/10/16 06:48:59;;;;;;;9.45;1.58;;;;;;;12.53;38.39;96390.75;5133588;27;20617;-63
2023/10/16 06:51:26;;;;;;;5.72;1.60;;;;;;;12.56;38.66;96397.59;5133712;28;20493;-63
2023/10/16 06:53:56;;;;;;;7.20;1.58;;;;;;;12.69;39.15;96401.34;5133892;27;20054;-62
2023/10/16 06:56:31;;;;;;;4.10;1.20;;;;;;;12.81;38.34;96394.63;5133489;27;20051;-62
2023/10/16 06:58:58;;;;;;;6.47;1.50;;;;;;;12.85;37.67;96419.78;5133510;28;20051;-62
2023/10/16 07:01:26;;;;;;;4.65;1.40;;;;;;;12.93;37.88;96418.56;5133737;28;20134;-63
2023/10/16 07:03:55;;;;;;;4.93;1.75;;;;;;;12.98;37.54;96421.81;5133511;28;20047;-63
2023/10/16 07:06:32;;;;;;;4.57;1.60;;;;;;;13.38;36.71;96417.19;5133848;27;20104;-62
2023/10/16 07:09:02;;;;;;;6.88;1.80;;;;;;;13.51;36.58;96434.97;5133458;27;20090;-62
2023/10/16 07:11:29;;;;;;;11.15;2.00;;;;;;;13.60;36.13;96431.88;5133414;28;20049;-62
2023/10/16 07:13:57;;;;;;;4.35;1.70;;;;;;;13.85;35.37;96440.25;5133411;27;20047;-62
2023/10/16 07:16:25;;;;;;;5.85;1.45;;;;;;;13.95;35.13;96449.34;5133488;27;20047;-62
2023/10/16 07:18:57;;;;;;;5.43;1.52;;;;;;;13.95;34.57;96451.13;5137140;27;20047;-62
2023/10/16 07:21:26;;;;;;;5.15;1.60;;;;;;;14.05;34.93;96462.84;5137023;27;20118;-61
2023/10/16 07:23:55;;;;;;;4.43;1.15;;;;;;;14.35;33.79;96458.63;5136988;27;20129;-62
2023/10/16 07:26:24;;;;;;;5.60;1.73;;;;;;;14.76;32.76;96431.81;5136942;27;20039;-63
2023/10/16 07:28:52;;;;;;;6.40;1.73;;;;;;;15.03;32.13;96440.88;5136733;27;20043;-62
2023/10/16 07:31:19;;;;;;;7.95;1.60;;;;;;;15.12;32.54;96443.00;5136953;27;20426;-62
2023/10/16 07:33:50;;;;;;;7.72;1.63;;;;;;;14.67;31.43;96463.91;5136933;27;20091;-63
2023/10/16 07:36:17;;;;;;;6.45;1.75;;;;;;;14.31;32.78;96468.50;5136855;27;20047;-63
2023/10/16 07:38:48;;;;;;;5.50;1.25;;;;;;;13.81;32.96;96471.09;5136639;27;20043;-62
2023/10/16 07:41:19;;;;;;;;;;;;;;;13.58;33.67;96474.94;5137322;27;20129;-63
2023/10/16 07:43:47;;;;;;;5.28;1.45;;;;;;;13.27;34.05;96485.16;5136767;27;19988;-62
2023/10/16 07:46:27;;;;;;;7.28;1.52;;;;;;;13.00;34.51;96481.19;5136542;27;20094;-63
2023/10/16 07:48:56;;;;;;;4.80;1.85;;;;;;;12.86;35.01;96478.41;5136595;27;20131;-63
2023/10/16 07:51:25;;;;;;;5.93;1.55;;;;;;;12.77;35.50;96492.81;5136507;27;20051;-63
2023/10/16 07:53:56;;;;;;;8.80;1.65;;;;;;;12.59;35.49;96484.03;5136486;27;20043;-63
2023/10/16 07:56:28;;;;;;;5.47;1.60;;;;;;;12.49;36.04;96488.84;5136417;27;20043;-63
2023/10/16 07:59:07;;;;;;;8.85;1.77;;;;;;;12.46;35.95;96510.84;5136331;27;20047;-62
2023/10/16 08:01:41;;;;;;;6.80;1.77;;;;;;;12.34;36.57;96520.13;5136284;27;20086;-62
2023/10/16 08:04:35;;;;;;;5.03;1.30;;;;;;;12.27;37.47;96495.09;5136452;27;20046;-63
2023/10/16 08:07:16;;;;;;;6.50;1.65;;;;;;;12.28;37.41;96512.53;5136186;27;20484;-62
2023/10/16 08:10:17;;;;;;;3.70;1.40;;;;;;;12.20;37.63;96498.94;5136183;27;20430;-63
2023/10/16 08:12:46;;;;;;;15.55;2.50;;;;;;;12.21;38.04;96488.38;5136061;27;20051;-62
2023/10/16 08:15:16;;;;;;;6.55;1.60;;;;;;;12.28;38.78;96486.31;5136089;27;20480;-63
2023/10/16 08:17:45;;;;;;;5.88;2.55;;;;;;;12.40;38.79;96478.81;5136049;27;20407;-62
2023/10/16 08:20:17;;;;;;;2.58;1.38;;;;;;;12.38;38.97;96471.00;5136075;27;20100;-62
2023/10/16 08:22:46;;;;;;;5.60;1.63;;;;;;;12.46;38.68;96481.16;5135972;27;20543;-63
2023/10/16 08:25:30;;;;;;;6.88;1.48;;;;;;;12.50;38.54;96495.81;5136041;27;20468;-63
2023/10/16 08:28:00;;;;;;;2.08;1.27;;;;;;;12.55;38.17;96493.81;5135313;27;20051;-62
2023/10/16 08:33:32;;;;;;;2.38;1.40;;;;;;;12.70;38.10;96494.88;5152397;27;20744;-61
2023/10/16 08:35:59;;;;;;;8.05;1.30;;;;;;;12.83;37.85;96483.81;5152048;27;20083;-62
2023/10/16 08:38:27;;;;;;;11.13;1.45;;;;;;;12.99;38.00;96508.41;5152095;27;20053;-61
2023/10/16 08:41:07;;;;;;;6.50;1.33;;;;;;;13.16;36.98;96506.72;5152065;27;20078;-63
2023/10/16 08:43:53;;;;;;;9.77;1.27;;;;;;;13.27;36.24;96514.06;5151971;27;20062;-62
2023/10/16 08:46:30;;;;;;;5.78;1.40;;;;;;;13.25;35.87;96523.81;5151958;27;20495;-63
2023/10/16 08:49:02;;;;;;;8.32;1.48;;;;;;;13.29;36.09;96535.84;5151892;27;20043;-63
2023/10/16 08:51:31;;;;;;;6.20;1.40;;;;;;;13.14;36.41;96542.72;5151787;27;20069;-62
2023/10/16 08:54:03;;;;;;;7.85;1.45;;;;;;;13.17;36.93;96536.44;5151895;27;20092;-62
2023/10/16 08:56:30;;;;;;;3.75;1.42;;;;;;;13.18;36.78;96540.78;5151846;27;20074;-63
2023/10/16 08:58:58;;;;;;;7.63;1.50;;;;;;;13.18;36.35;96551.31;5151736;27;20503;-63
2023/10/16 09:01:28;;;;;;;4.82;1.60;;;;;;;13.19;36.36;96560.88;5151717;27;20047;-63
2023/10/16 09:04:05;;;;;;;6.03;1.75;;;;;;;13.36;36.57;96550.38;5151699;27;20445;-63
2023/10/16 09:06:37;;;;;;;5.13;1.30;;;;;;;13.55;36.35;96583.69;5151540;27;20043;-64
2023/10/16 09:09:16;;;;;;;6.47;1.83;;;;;;;13.53;35.75;96567.13;5151592;27;20046;-63
2023/10/16 09:11:46;;;;;;;4.38;1.55;;;;;;;13.70;36.02;96568.91;5151169;27;20129;-63
2023/10/16 09:14:17;;;;;;;2.47;1.45;;;;;;;14.09;34.48;96559.06;5151445;27;20039;-63
2023/10/16 09:16:48;;;;;;;3.53;1.25;;;;;;;14.34;34.09;96557.78;5151366;27;20043;-63
2023/10/16 09:19:18;;;;;;;8.43;1.55;;;;;;;14.82;33.74;96561.44;5151397;27;20054;-63
2023/10/16 09:21:50;;;;;;;2.85;1.02;;;;;;;15.26;32.01;96566.00;5151268;27;20043;-63
2023/10/16 09:24:20;;;;;;;3.67;1.45;;;;;;;15.52;31.39;96560.19;5151262;27;20043;-63
2023/10/16 09:26:54;;;;;;;4.43;1.23;;;;;;;15.74;30.50;96558.94;5151115;27;20047;-63
2023/10/16 09:29:25;;;;;;;8.57;1.20;;;;;;;16.10;30.29;96551.63;5151201;27;20553;-63
2023/10/16 09:31:52;;;;;;;3.83;1.17;;;;;;;16.27;29.10;96554.06;5150840;27;20474;-63
2023/10/16 09:34:25;;;;;;;5.18;1.20;;;;;;;16.65;29.56;96551.78;5151084;27;20051;-63
2023/10/16 09:39:35;;;;;;;3.17;1.02;;;;;;;17.15;27.56;96567.19;5151354;27;20051;-62
2023/10/16 09:42:11;;;;;;;2.92;1.20;;;;;;;17.26;27.60;96558.56;5150920;27;20050;-62
2023/10/16 09:44:40;;;;;;;6.28;1.63;;;;;;;17.38;27.11;96588.66;5137494;27;20061;-62
2023/10/16 09:49:59;;;;;;;3.17;1.20;;;;;;;17.07;26.89;96569.47;5136757;27;20047;-61
2023/10/16 09:52:30;;;;;;;5.13;1.20;;;;;;;17.19;27.19;96560.78;5136867;27;20053;-62
2023/10/16 09:55:00;;;;;;;4.68;1.23;;;;;;;17.28;26.63;96567.25;5136897;27;20381;-62
2023/10/16 09:57:30;;;;;;;4.03;1.10;;;;;;;17.17;26.86;96568.81;5136889;27;20043;-63
2023/10/16 10:00:22;;;;;;;;;;;;;;;17.07;26.30;96565.06;5137180;27;20043;-62
2023/10/16 10:02:52;;;;;;;1.70;1.10;;;;;;;16.92;26.59;96558.94;5136642;27;19943;-61
2023/10/16 10:05:31;;;;;;;2.38;0.98;;;;;;;17.10;26.62;96561.38;5136564;27;20074;-62
2023/10/16 10:08:00;;;;;;;3.90;1.00;;;;;;;17.29;26.52;96566.31;5136599;27;20047;-63
2023/10/16 10:13:15;;;;;;;3.25;1.00;;;;;;;17.27;26.50;96563.75;5102150;27;20047;-62
2023/10/16 10:15:46;;;;;;;3.40;1.05;;;;;;;17.10;25.80;96562.19;5136424;27;20051;-63
2023/10/16 10:21:11;;;;;;;2.10;1.10;;;;;;;16.72;27.23;96561.03;5136118;27;20273;-62
2023/10/16 10:23:38;;;;;;;1.48;1.10;;;;;;;17.01;27.89;96554.84;5136246;27;20446;-61
2023/10/16 10:26:07;;;;;;;4.40;1.42;;;;;;;17.23;27.11;96564.91;5136436;27;20138;-62
2023/10/16 10:28:37;;;;;;;3.33;1.50;;;;;;;17.39;26.78;96566.53;5136171;27;20051;-62
2023/10/16 10:31:05;;;;;;;;;;;;;;;17.36;26.46;96564.94;5136311;27;20049;-62
2023/10/16 10:33:42;;;;;;;1.77;1.25;;;;;;;17.45;27.12;96550.28;5136083;27;20088;-61
2023/10/16 10:36:34;;;;;;;3.28;1.10;;;;;;;17.60;26.46;96569.56;5136000;27;20050;-62
2023/10/16 10:39:38;;;;;;;3.35;1.23;;;;;;;17.54;26.33;96569.97;5135860;27;20100;-62
2023/10/16 10:42:09;;;;;;;1.10;0.85;;;;;;;17.52;26.15;96569.25;5135971;27;20050;-61
2023/10/16 10:44:39;;;;;;;1.02;0.93;;;;;;;17.64;26.39;96568.41;5135985;27;20047;-62
2023/10/16 10:47:21;;;;;;;2.17;0.93;;;;;;;17.48;26.01;96565.94;5135781;27;20051;-62
2023/10/16 10:49:51;;;;;;;2.92;0.98;;;;;;;17.46;26.29;96580.22;5135635;27;20101;-62
2023/10/16 10:52:21;;;;;;;1.90;1.10;;;;;;;17.28;26.05;96575.19;5135588;27;20142;-62
2023/10/16 10:54:58;;;;;;;1.65;1.08;;;;;;;17.12;26.18;96580.59;5134640;27;20039;-62
2023/10/16 10:57:26;;;;;;;2.65;1.20;;;;;;;17.16;26.54;96566.25;5135630;27;20047;-62
2023/10/16 10:59:56;;;;;;;4.43;1.50;;;;;;;17.18;27.08;96565.22;5135473;27;20039;-61
2023/10/16 11:02:48;;;;;;;3.03;1.25;;;;;;;17.18;26.22;96573.13;5135433;27;20484;-61
2023/10/16 11:05:24;;;;;;;4.32;1.05;;;;;;;17.14;26.56;96570.78;5135463;27;20043;-62
2023/10/16 11:10:42;;;;;;;4.80;1.33;;;;;;;17.28;25.65;96565.44;5135434;27;20049;-62
2023/10/16 11:13:10;;;;;;;9.52;1.45;;;;;;;17.18;25.62;96564.34;5135217;27;20053;-62
2023/10/16 11:15:38;;;;;;;6.32;1.58;;;;;;;17.01;25.48;96560.13;5135339;27;20078;-62
2023/10/16 11:18:18;;;;;;;5.88;1.67;;;;;;;16.90;25.83;96558.16;5135335;27;20051;-61
2023/10/16 11:20:47;;;;;;;1.88;1.20;;;;;;;17.03;26.08;96556.44;5135091;27;20051;-62
2023/10/16 11:23:16;;;;;;;3.30;1.02;;;;;;;17.05;25.43;96564.25;5135061;27;20537;-61
2023/10/16 11:25:45;;;;;;;2.87;1.03;;;;;;;17.05;26.02;96569.56;5134992;27;20043;-62
2023/10/16 11:28:17;;;;;;;1.98;1.30;;;;;;;17.16;25.06;96559.16;5135065;27;20046;-63
2023/10/16 11:30:46;;;;;;;4.28;1.25;;;;;;;17.14;25.54;96563.72;5135017;27;20092;-62
2023/10/16 11:33:13;;;;;;;4.03;1.50;;;;;;;17.09;25.04;96568.44;5134601;27;20111;-61
2023/10/16 11:35:46;;;;;;;5.68;1.45;;;;;;;17.07;25.73;96565.06;5134890;27;20126;-62
2023/10/16 11:38:28;;;;;;;1.60;1.13;;;;;;;17.09;25.53;96557.00;5134859;27;20043;-62
2023/10/16 11:40:55;;;;;;;2.78;1.52;;;;;;;17.20;25.83;96558.97;5134792;27;20054;-62
2023/10/16 11:43:23;;;;;;;5.72;1.23;;;;;;;17.28;26.77;96568.09;5134903;27;20089;-62
2023/10/16 11:45:53;;;;;;;7.38;1.38;;;;;;;17.37;26.09;96571.94;5134669;27;20135;-62
2023/10/16 11:48:39;;;;;;;3.95;1.48;;;;;;;17.30;25.18;96568.84;5134688;27;20051;-62
2023/10/16 11:51:08;;;;;;;1.85;1.48;;;;;;;17.31;25.59;96572.34;5134610;27;20054;-62
2023/10/16 11:53:37;;;;;;;3.45;1.10;;;;;;;17.40;25.72;96574.38;5134542;27;20091;-62
2023/10/16 11:56:08;;;;;;;5.55;1.60;;;;;;;17.45;25.60;96582.00;5134534;27;20089;-62
2023/10/16 11:58:36;;;;;;;2.70;1.20;;;;;;;17.46;24.62;96565.19;5134574;27;20100;-62
2023/10/16 12:01:11;;;;;;;3.10;1.42;;;;;;;17.32;24.84;96589.91;5134574;27;20051;-61
2023/10/16 12:03:39;;;;;;;4.47;1.48;;;;;;;17.31;24.48;96593.50;5134267;27;20506;-62
2023/10/16 12:06:08;;;;;;;4.13;1.50;;;;;;;17.21;25.26;96598.50;5134235;27;20126;-62
2023/10/16 12:08:40;;;;;;;4.13;1.52;;;;;;;17.22;24.87;96588.81;5134374;27;20047;-61
2023/10/16 12:11:08;;;;;;;4.80;1.23;;;;;;;17.28;25.14;96588.41;5134329;27;20047;-62
2023/10/16 12:13:36;;;;;;;6.57;1.35;;;;;;;17.36;25.14;96595.81;5134153;27;20047;-62
2023/10/16 12:16:05;;;;;;;2.55;1.50;;;;;;;17.24;25.47;96595.66;5134218;27;20069;-62
2023/10/16 12:18:32;;;;;;;2.22;1.38;;;;;;;17.24;25.29;96594.81;5134207;27;20050;-62
2023/10/16 12:21:04;;;;;;;3.70;1.60;;;;;;;17.25;25.31;96600.00;5134044;27;20047;-62
2023/10/16 12:23:36;;;;;;;5.03;1.45;;;;;;;17.24;25.30;96610.69;5134109;27;20381;-62
2023/10/16 12:26:07;;;;;;;3.25;1.35;;;;;;;17.22;25.54;96613.41;5134119;27;20051;-62
2023/10/16 12:28:34;;;;;;;;;;;;;;;17.20;24.52;96602.13;5134523;27;20049;-62
2023/10/16 12:31:02;;;;;;;1.90;1.20;;;;;;;17.13;25.03;96604.28;5133682;27;20265;-62
2023/10/16 12:33:31;;;;;;;1.98;1.35;;;;;;;17.12;25.14;96602.59;5133882;27;20047;-62
2023/10/16 12:36:01;;;;;;;3.80;1.38;;;;;;;17.23;25.18;96601.06;5133972;27;20081;-62
2023/10/16 12:38:29;;;;;;;2.10;0.93;;;;;;;17.25;25.52;96615.88;5134078;27;20050;-62
2023/10/16 12:40:59;;;;;;;2.45;1.45;;;;;;;17.22;24.61;96620.50;5133975;28;20045;-61
2023/10/16 12:43:28;;;;;;;1.88;1.10;;;;;;;16.90;24.19;96624.19;5133931;28;20103;-62
2023/10/16 12:45:57;;;;;;;2.80;1.40;;;;;;;16.80;24.63;96616.84;5133935;27;20047;-61
2023/10/16 12:48:29;;;;;;;2.08;1.20;;;;;;;16.74;24.01;96613.75;5133903;27;20133;-61
2023/10/16 12:50:59;;;;;;;3.17;1.20;;;;;;;16.64;23.78;96619.59;5134047;27;20047;-62
2023/10/16 12:53:28;;;;;;;2.58;1.33;;;;;;;16.66;24.05;96620.38;5133861;27;20086;-62
2023/10/16 12:55:58;;;;;;;2.78;1.30;;;;;;;16.67;24.32;96626.47;5133875;28;20073;-62
2023/10/16 12:58:28;;;;;;;7.93;1.63;;;;;;;16.66;23.91;96627.41;5133902;28;20043;-61
2023/10/16 13:00:58;;;;;;;2.30;1.23;;;;;;;16.63;24.52;96620.53;5133759;27;20092;-62
2023/10/16 13:03:26;;;;;;;1.90;1.10;;;;;;;16.70;24.40;96622.81;5133791;28;20122;-62
2023/10/16 13:05:53;;;;;;;1.83;1.38;;;;;;;16.67;24.94;96622.03;5133766;27;20130;-62
2023/10/16 13:08:21;;;;;;;2.35;1.13;;;;;;;16.71;25.01;96625.38;5133702;27;20082;-62
2023/10/16 13:10:51;;;;;;;1.70;1.02;;;;;;;16.70;24.45;96621.00;5133848;27;20130;-62
2023/10/16 13:13:21;;;;;;;6.32;1.55;;;;;;;16.60;24.57;96627.78;5133621;28;20043;-62
2023/10/16 13:15:54;;;;;;;3.50;1.42;;;;;;;16.49;25.07;96637.22;5133790;27;20078;-62